Time;durP1;ratioP1;P1;durP2;ratioP2;P2;SDS_P1;SDS_P2;PMS_P1;PMS_P2;Temp;Humidity;BMP_temperature;BMP_pressure;BME280_temperature;BME280_humidity;BME280_pressure;Samples;Min_cycle;Max_cycle;Signal;HPM_P1;HPM_P2
2023/03/11 02:24:11;;;;;;;;;;;2.30;1.00;;;;;;5072175;22;19931;-81
2023/03/11 02:26:57;;;;;;;;;;;2.20;1.00;;;;;;5056755;28;19933;-82
2023/03/11 02:29:23;;;;;;;;;;;2.10;1.00;;;;;;5072980;28;19959;-83
2023/03/11 02:31:48;;;;;;;;;;;2.20;1.00;;;;;;5056363;28;19909;-82
2023/03/11 02:34:22;;;;;;;;;;;2.20;1.00;;;;;;5057578;28;19955;-82
2023/03/11 02:36:47;;;;;;;;;;;2.20;1.00;;;;;;5039825;28;19916;-82
2023/03/11 02:39:13;;;;;;;;;;;2.30;1.00;;;;;;5055590;28;20487;-82
2023/03/11 02:41:40;;;;;;;;;;;2.30;1.00;;;;;;5057438;28;19917;-81
2023/03/11 02:44:07;;;;;;;;;;;2.20;1.00;;;;;;5038968;28;19926;-82
2023/03/11 02:46:33;;;;;;;;;;;2.20;1.00;;;;;;5027472;28;19960;-82
2023/03/11 02:48:58;;;;;;;;;;;2.20;1.00;;;;;;5037581;28;19913;-82
2023/03/11 02:51:24;;;;;;;;;;;2.20;1.00;;;;;;5036979;28;19909;-80
2023/03/11 02:53:51;;;;;;;;;;;2.20;1.00;;;;;;5035397;28;19976;-80
2023/03/11 02:56:17;;;;;;;;;;;2.10;1.00;;;;;;5035383;28;20373;-82
2023/03/11 02:58:42;;;;;;;;;;;2.10;1.00;;;;;;5035500;28;19919;-81
2023/03/11 03:01:08;;;;;;;;;;;2.10;1.00;;;;;;5035269;28;19916;-82
2023/03/11 03:03:34;;;;;;;;;;;2.00;1.00;;;;;;5036740;28;19936;-82
2023/03/11 03:05:59;;;;;;;;;;;2.00;1.00;;;;;;5035570;28;19925;-82
2023/03/11 03:08:25;;;;;;;;;;;2.00;1.00;;;;;;5036663;28;19909;-82
2023/03/11 03:10:50;;;;;;;;;;;1.90;1.00;;;;;;5036477;28;19910;-82
2023/03/11 03:13:16;;;;;;;;;;;1.90;1.00;;;;;;5036490;28;19909;-82
2023/03/11 03:15:41;;;;;;;;;;;1.90;1.00;;;;;;5035072;28;20500;-81
2023/03/11 03:18:07;;;;;;;;;;;1.90;1.00;;;;;;5034974;28;19921;-82
2023/03/11 03:20:32;;;;;;;;;;;1.90;1.00;;;;;;5034590;28;19980;-82
2023/03/11 03:22:58;;;;;;;;;;;1.90;1.00;;;;;;5034412;28;19999;-82
2023/03/11 03:25:23;;;;;;;;;;;1.90;1.00;;;;;;5036220;28;19913;-81
2023/03/11 03:27:49;;;;;;;;;;;1.80;1.00;;;;;;5036261;28;20253;-81
2023/03/11 03:30:15;;;;;;;;;;;1.80;1.00;;;;;;5035865;28;19913;-82
2023/03/11 03:32:40;;;;;;;;;;;1.90;1.00;;;;;;5034545;28;19909;-81
2023/03/11 03:35:06;;;;;;;;;;;1.90;1.00;;;;;;5035574;28;19913;-81
2023/03/11 03:37:33;;;;;;;;;;;1.80;1.00;;;;;;5018006;28;20399;-81
2023/03/11 03:39:58;;;;;;;;;;;1.80;1.00;;;;;;5017862;28;20415;-81
2023/03/11 03:42:24;;;;;;;;;;;1.80;1.00;;;;;;5033345;28;19913;-80
2023/03/11 03:44:50;;;;;;;;;;;1.70;1.00;;;;;;5033410;28;20288;-81
2023/03/11 03:47:16;;;;;;;;;;;1.70;1.00;;;;;;5034962;28;20399;-81
2023/03/11 03:49:41;;;;;;;;;;;1.60;1.00;;;;;;5033596;28;19972;-81
2023/03/11 03:52:07;;;;;;;;;;;1.70;1.00;;;;;;5035062;28;20288;-82
2023/03/11 03:54:33;;;;;;;;;;;1.60;1.00;;;;;;5017297;28;20007;-82
2023/03/11 03:56:58;;;;;;;;;;;1.60;1.00;;;;;;5033717;28;19916;-81
2023/03/11 03:59:24;;;;;;;;;;;1.60;1.00;;;;;;5033710;28;20000;-81
2023/03/11 04:01:49;;;;;;;;;;;1.60;1.00;;;;;;5035110;28;20404;-82
2023/03/11 04:04:15;;;;;;;;;;;1.60;1.00;;;;;;5033695;28;19909;-82
2023/03/11 04:06:41;;;;;;;;;;;1.60;1.00;;;;;;5033509;28;19913;-82
2023/03/11 04:09:06;;;;;;;;;;;1.60;1.00;;;;;;5016985;28;19913;-81
2023/03/11 04:11:32;;;;;;;;;;;1.70;1.00;;;;;;5033290;28;19928;-81
2023/03/11 04:13:57;;;;;;;;;;;1.70;1.00;;;;;;5033474;28;19916;-81
2023/03/11 04:16:23;;;;;;;;;;;1.80;1.00;;;;;;5033045;28;19909;-82
2023/03/11 04:18:48;;;;;;;;;;;1.80;1.00;;;;;;5033243;28;19913;-81
2023/03/11 04:21:14;;;;;;;;;;;1.60;1.00;;;;;;5034392;28;20395;-81
2023/03/11 04:23:39;;;;;;;;;;;1.60;1.00;;;;;;5033045;28;20372;-81
2023/03/11 04:26:05;;;;;;;;;;;1.60;1.00;;;;;;5034199;28;19909;-81
2023/03/11 04:28:30;;;;;;;;;;;1.60;1.00;;;;;;5033230;28;20383;-82
2023/03/11 04:30:56;;;;;;;;;;;1.60;1.00;;;;;;5032498;28;20446;-80
2023/03/11 04:33:21;;;;;;;;;;;1.70;1.00;;;;;;5033067;28;19960;-81
2023/03/11 04:35:47;;;;;;;;;;;1.60;1.00;;;;;;5034120;28;19909;-81
2023/03/11 04:38:12;;;;;;;;;;;1.50;1.00;;;;;;5033058;28;20431;-81
2023/03/11 04:40:38;;;;;;;;;;;1.50;1.00;;;;;;5032806;28;19931;-80
2023/03/11 04:43:04;;;;;;;;;;;1.50;1.00;;;;;;5033619;28;20354;-80
2023/03/11 04:45:29;;;;;;;;;;;1.40;1.00;;;;;;5033387;28;20368;-81
2023/03/11 04:47:55;;;;;;;;;;;1.40;1.00;;;;;;5047267;28;20356;-81
2023/03/11 04:50:21;;;;;;;;;;;1.40;1.00;;;;;;5049050;28;19909;-82
2023/03/11 04:52:46;;;;;;;;;;;1.40;1.00;;;;;;5031890;28;19909;-80
2023/03/11 04:55:12;;;;;;;;;;;1.50;1.00;;;;;;5032136;28;19913;-82
2023/03/11 04:57:42;;;;;;;;;;;1.60;1.00;;;;;;5033256;28;20284;-81
2023/03/11 05:00:10;;;;;;;;;;;1.70;1.00;;;;;;5033673;28;19913;-82
2023/03/11 05:02:36;;;;;;;;;;;1.70;1.00;;;;;;5032013;28;19920;-82
2023/03/11 05:05:02;;;;;;;;;;;1.80;1.00;;;;;;5032240;28;19909;-82
2023/03/11 05:07:27;;;;;;;;;;;1.80;1.00;;;;;;5031894;28;20466;-81
2023/03/11 05:09:53;;;;;;;;;;;1.80;1.00;;;;;;5032087;28;19932;-81
2023/03/11 05:12:18;;;;;;;;;;;1.80;1.00;;;;;;5031723;28;19909;-81
2023/03/11 05:14:44;;;;;;;;;;;1.90;1.00;;;;;;5031917;28;19909;-81
2023/03/11 05:17:11;;;;;;;;;;;1.90;1.00;;;;;;5031949;28;19913;-81
2023/03/11 05:19:36;;;;;;;;;;;2.00;1.00;;;;;;5031767;28;19909;-81
2023/03/11 05:22:02;;;;;;;;;;;2.10;1.00;;;;;;5031898;28;19972;-80
2023/03/11 05:24:28;;;;;;;;;;;2.10;1.00;;;;;;5032871;28;19917;-81
2023/03/11 05:26:54;;;;;;;;;;;2.10;1.00;;;;;;5032847;28;20332;-81
2023/03/11 05:29:20;;;;;;;;;;;2.20;1.00;;;;;;5032970;28;19913;-82
2023/03/11 05:31:45;;;;;;;;;;;2.30;1.00;;;;;;5031445;28;19916;-81
2023/03/11 05:34:11;;;;;;;;;;;2.40;1.00;;;;;;5032813;28;19909;-80
2023/03/11 05:36:37;;;;;;;;;;;2.50;1.00;;;;;;5032449;28;19909;-82
2023/03/11 05:39:02;;;;;;;;;;;2.50;1.00;;;;;;5031483;28;19936;-81
2023/03/11 05:41:28;;;;;;;;;;;2.50;1.00;;;;;;5032269;28;19915;-82
2023/03/11 05:43:53;;;;;;;;;;;2.60;1.00;;;;;;5037003;28;19909;-82
2023/03/11 05:46:19;;;;;;;;;;;2.60;1.00;;;;;;5042184;28;19909;-82
2023/03/11 05:48:45;;;;;;;;;;;2.60;1.00;;;;;;5040455;28;19936;-82
2023/03/11 05:51:11;;;;;;;;;;;2.60;1.00;;;;;;5043140;28;19935;-82
2023/03/11 05:53:36;;;;;;;;;;;2.60;1.00;;;;;;5041572;28;20348;-82
2023/03/11 05:56:03;;;;;;;;;;;2.60;1.00;;;;;;5024516;28;19913;-82
2023/03/11 05:58:29;;;;;;;;;;;2.60;1.00;;;;;;5040726;28;20261;-82
2023/03/11 06:00:54;;;;;;;;;;;2.60;1.00;;;;;;5023724;28;20004;-82
2023/03/11 06:03:20;;;;;;;;;;;2.60;1.00;;;;;;5039914;28;20359;-82
2023/03/11 06:05:46;;;;;;;;;;;2.60;1.00;;;;;;5039971;28;20008;-83
2023/03/11 06:08:12;;;;;;;;;;;2.60;1.00;;;;;;5023720;28;19937;-82
2023/03/11 06:10:38;;;;;;;;;;;2.70;99.90;;;;;;5039723;28;19909;-82
2023/03/11 06:13:03;;;;;;;;;;;2.70;1.00;;;;;;5040434;28;19910;-81
2023/03/11 06:15:29;;;;;;;;;;;2.70;1.00;;;;;;5042304;28;19909;-82
2023/03/11 06:17:54;;;;;;;;;;;2.70;1.00;;;;;;5040811;28;20104;-82
2023/03/11 06:20:20;;;;;;;;;;;2.70;1.00;;;;;;5041666;28;19916;-81
2023/03/11 06:22:48;;;;;;;;;;;2.70;1.00;;;;;;5039502;28;19913;-82
2023/03/11 06:25:14;;;;;;;;;;;2.80;1.00;;;;;;5040197;28;19977;-82
2023/03/11 06:27:39;;;;;;;;;;;2.80;1.00;;;;;;5040882;28;19964;-82
2023/03/11 06:30:05;;;;;;;;;;;2.90;1.00;;;;;;5041421;28;19948;-82
2023/03/11 06:32:33;;;;;;;;;;;3.00;1.00;;;;;;5023194;28;19948;-82
2023/03/11 06:34:58;;;;;;;;;;;3.10;1.00;;;;;;5041042;28;19960;-82
2023/03/11 06:37:24;;;;;;;;;;;3.10;1.00;;;;;;5039649;28;19909;-82
2023/03/11 06:39:53;;;;;;;;;;;3.10;99.90;;;;;;5039436;28;19909;-82
2023/03/11 06:42:19;;;;;;;;;;;3.20;99.90;;;;;;5038480;28;20292;-82
2023/03/11 06:44:47;;;;;;;;;;;3.30;99.90;;;;;;5040677;28;19909;-82
2023/03/11 06:47:13;;;;;;;;;;;3.30;99.90;;;;;;5039095;28;19909;-82
2023/03/11 06:49:40;;;;;;;;;;;3.40;99.90;;;;;;5040768;28;19909;-82
2023/03/11 06:52:07;;;;;;;;;;;3.30;99.90;;;;;;5052191;28;19933;-82
2023/03/11 06:54:32;;;;;;;;;;;3.40;99.90;;;;;;5040999;28;20419;-83
2023/03/11 06:56:57;;;;;;;;;;;3.40;99.90;;;;;;5042873;28;19910;-82
2023/03/11 06:59:23;;;;;;;;;;;3.30;99.90;;;;;;5040703;28;20329;-82
2023/03/11 07:01:49;;;;;;;;;;;3.30;99.90;;;;;;5039778;28;19920;-82
2023/03/11 07:04:14;;;;;;;;;;;3.30;99.90;;;;;;5039778;28;19910;-82
2023/03/11 07:06:40;;;;;;;;;;;3.20;99.90;;;;;;5039170;28;19909;-82
2023/03/11 07:09:05;;;;;;;;;;;3.20;99.90;;;;;;5022548;28;19944;-82
2023/03/11 07:11:31;;;;;;;;;;;3.30;99.90;;;;;;5039263;28;19956;-82
2023/03/11 07:13:57;;;;;;;;;;;3.20;99.90;;;;;;5040689;28;19909;-82
2023/03/11 07:16:27;;;;;;;;;;;3.30;99.90;;;;;;5040419;28;19999;-82
2023/03/11 07:18:54;;;;;;;;;;;3.30;99.90;;;;;;5038998;28;19977;-82
2023/03/11 07:21:20;;;;;;;;;;;3.30;99.90;;;;;;5037460;28;19909;-83
2023/03/11 07:23:48;;;;;;;;;;;3.30;1.00;;;;;;5035778;28;20380;-82
2023/03/11 07:26:14;;;;;;;;;;;3.20;99.90;;;;;;5031677;28;19909;-82
2023/03/11 07:28:39;;;;;;;;;;;3.20;99.90;;;;;;5057637;28;19940;-83
2023/03/11 07:31:06;;;;;;;;;;;3.20;99.90;;;;;;5039709;28;19908;-83
2023/03/11 07:33:31;;;;;;;;;;;3.20;99.90;;;;;;5039508;28;19958;-83
2023/03/11 07:35:56;;;;;;;;;;;3.10;99.90;;;;;;5039644;28;19972;-83
2023/03/11 07:38:22;;;;;;;;;;;3.20;99.90;;;;;;5039146;28;19913;-81
2023/03/11 07:40:56;;;;;;;;;;;3.10;99.90;;;;;;5039422;28;20440;-82
2023/03/11 07:43:21;;;;;;;;;;;3.10;99.90;;;;;;5039054;28;20444;-82
2023/03/11 07:45:47;;;;;;;;;;;3.10;99.90;;;;;;5058115;28;19948;-82
2023/03/11 07:48:13;;;;;;;;;;;3.00;99.90;;;;;;5058021;28;19912;-82
2023/03/11 07:50:38;;;;;;;;;;;3.00;1.00;;;;;;5058333;28;19916;-82
2023/03/11 07:53:04;;;;;;;;;;;3.10;1.00;;;;;;5039288;28;19916;-82
2023/03/11 07:55:29;;;;;;;;;;;3.30;1.00;;;;;;5057679;28;19909;-82
2023/03/11 07:57:55;;;;;;;;;;;3.30;99.90;;;;;;5039883;28;19908;-82
2023/03/11 08:00:20;;;;;;;;;;;3.50;99.90;;;;;;5039324;28;19916;-82
2023/03/11 08:02:46;;;;;;;;;;;3.40;1.00;;;;;;5056977;28;19913;-82
2023/03/11 08:05:11;;;;;;;;;;;3.50;98.10;;;;;;5057638;28;20380;-81
2023/03/11 08:07:37;;;;;;;;;;;3.40;1.00;;;;;;5057496;28;19963;-81
2023/03/11 08:10:03;;;;;;;;;;;3.40;99.90;;;;;;5039548;28;20442;-82
2023/03/11 08:12:28;;;;;;;;;;;3.50;1.00;;;;;;5038833;28;20023;-82
2023/03/11 08:14:54;;;;;;;;;;;3.60;1.00;;;;;;5038810;28;19963;-82
2023/03/11 08:17:19;;;;;;;;;;;3.70;99.90;;;;;;5038726;28;19912;-81
2023/03/11 08:19:45;;;;;;;;;;;3.80;1.00;;;;;;5056266;28;19909;-82
2023/03/11 08:22:10;;;;;;;;;;;3.90;99.90;;;;;;5038604;28;19913;-82
2023/03/11 08:24:36;;;;;;;;;;;3.90;99.90;;;;;;5038107;28;19916;-81
2023/03/11 08:27:01;;;;;;;;;;;4.10;1.00;;;;;;5038023;28;19913;-82
2023/03/11 08:29:26;;;;;;;;;;;4.20;1.00;;;;;;5038154;28;19909;-82
2023/03/11 08:31:52;;;;;;;;;;;4.20;48.40;;;;;;5055985;28;20288;-82
2023/03/11 08:34:19;;;;;;;;;;;4.40;17.40;;;;;;5037860;28;19909;-82
2023/03/11 08:36:45;;;;;;;;;;;4.50;21.70;;;;;;5038071;28;20004;-82
2023/03/11 08:39:10;;;;;;;;;;;4.50;1.00;;;;;;5037947;28;20364;-81
2023/03/11 08:41:36;;;;;;;;;;;4.60;1.00;;;;;;5055793;28;19944;-82
2023/03/11 08:44:01;;;;;;;;;;;4.70;1.00;;;;;;5055957;28;19912;-82
2023/03/11 08:46:29;;;;;;;;;;;4.80;1.00;;;;;;5056189;28;19908;-81
2023/03/11 08:48:54;;;;;;;;;;;4.80;1.00;;;;;;5055655;28;19909;-82
2023/03/11 08:51:20;;;;;;;;;;;4.90;99.90;;;;;;5037180;28;20437;-81
2023/03/11 08:53:46;;;;;;;;;;;4.90;1.00;;;;;;5037255;28;19995;-82
2023/03/11 08:56:11;;;;;;;;;;;4.90;99.90;;;;;;5037533;28;19986;-83
2023/03/11 08:58:37;;;;;;;;;;;5.00;99.90;;;;;;5036828;28;20395;-82
2023/03/11 09:01:03;;;;;;;;;;;5.10;99.90;;;;;;5036913;28;19916;-82
2023/03/11 09:03:34;;;;;;;;;;;5.20;99.90;;;;;;5037104;28;20429;-82
2023/03/11 09:06:00;;;;;;;;;;;5.40;1.00;;;;;;5054963;28;19909;-82
2023/03/11 09:08:26;;;;;;;;;;;5.40;99.90;;;;;;5037152;28;19908;-82
2023/03/11 09:10:51;;;;;;;;;;;5.50;32.40;;;;;;5037039;28;19974;-82
2023/03/11 09:13:17;;;;;;;;;;;5.40;1.00;;;;;;5037315;28;20271;-81
2023/03/11 09:15:42;;;;;;;;;;;5.50;1.00;;;;;;5036872;28;19908;-82
2023/03/11 09:18:11;;;;;;;;;;;5.60;1.00;;;;;;5036977;28;19962;-82
2023/03/11 09:20:37;;;;;;;;;;;5.60;1.00;;;;;;5047773;28;19909;-82
2023/03/11 09:23:02;;;;;;;;;;;5.80;1.00;;;;;;5036401;28;19923;-82
2023/03/11 09:25:28;;;;;;;;;;;6.00;99.90;;;;;;5052700;28;19913;-81
2023/03/11 09:27:53;;;;;;;;;;;6.10;1.00;;;;;;5052521;28;19909;-82
2023/03/11 09:30:19;;;;;;;;;;;6.30;1.00;;;;;;5053209;28;19909;-81
2023/03/11 09:32:44;;;;;;;;;;;6.30;1.00;;;;;;5052026;28;19916;-82
2023/03/11 09:35:10;;;;;;;;;;;6.40;1.00;;;;;;5054210;28;19908;-81
2023/03/11 09:37:35;;;;;;;;;;;6.50;1.00;;;;;;5054901;28;20372;-81
2023/03/11 09:40:01;;;;;;;;;;;6.70;99.90;;;;;;5054694;28;20369;-80
2023/03/11 09:42:46;;;;;;;;;;;6.90;99.90;;;;;;5053050;28;19919;-82
2023/03/11 09:45:15;;;;;;;;;;;7.30;99.90;;;;;;5021855;28;19951;-82
2023/03/11 09:47:56;;;;;;;;;;;7.50;99.90;;;;;;5035831;28;19909;-82
2023/03/11 09:50:36;;;;;;;;;;;7.80;99.90;;;;;;5047888;28;19915;-82
2023/03/11 09:53:13;;;;;;;;;;;7.70;99.90;;;;;;5055503;28;19943;-82
2023/03/11 09:55:46;;;;;;;;;;;7.90;99.90;;;;;;5052586;28;19909;-82
2023/03/11 09:58:14;;;;;;;;;;;7.90;99.90;;;;;;5035629;28;19913;-81
2023/03/11 10:00:40;;;;;;;;;;;8.50;99.90;;;;;;5053468;28;19909;-82
2023/03/11 10:03:10;;;;;;;;;;;8.50;99.90;;;;;;5035540;28;19928;-82
2023/03/11 10:05:36;;;;;;;;;;;8.50;99.90;;;;;;5035572;28;19916;-82
2023/03/11 10:08:03;;;;;;;;;;;8.80;99.90;;;;;;5035084;28;19912;-82
2023/03/11 10:10:31;;;;;;;;;;;9.40;99.90;;;;;;5053422;28;19908;-82
2023/03/11 10:13:15;;;;;;;;;;;10.50;99.90;;;;;;5035483;28;19916;-82
2023/03/11 10:15:47;;;;;;;;;;;11.30;99.90;;;;;;5052923;28;20280;-83
2023/03/11 10:18:18;;;;;;;;;;;11.80;99.90;;;;;;5053165;28;19913;-82
2023/03/11 10:21:03;;;;;;;;;;;12.30;99.90;;;;;;5055204;28;20014;-82
2023/03/11 10:23:28;;;;;;;;;;;12.40;99.90;;;;;;5054353;28;19916;-83
2023/03/11 10:26:00;;;;;;;;;;;12.20;99.90;;;;;;5054664;28;20404;-83
2023/03/11 10:28:34;;;;;;;;;;;12.60;99.90;;;;;;5054889;28;19999;-82
2023/03/11 10:31:03;;;;;;;;;;;12.30;99.90;;;;;;5054843;28;19908;-82
2023/03/11 10:33:38;;;;;;;;;;;11.90;99.90;;;;;;5073193;28;19938;-82
2023/03/11 10:36:06;;;;;;;;;;;11.60;99.90;;;;;;5072669;28;19916;-81
2023/03/11 10:38:45;;;;;;;;;;;11.50;99.90;;;;;;5054876;28;19908;-82
2023/03/11 10:41:17;;;;;;;;;;;11.90;99.90;;;;;;5054482;28;19909;-81
2023/03/11 10:43:45;;;;;;;;;;;12.10;99.90;;;;;;5075905;28;19913;-82
2023/03/11 10:46:25;;;;;;;;;;;11.80;99.90;;;;;;5058162;28;19916;-82
2023/03/11 10:48:50;;;;;;;;;;;11.50;99.90;;;;;;5076509;28;19915;-81
2023/03/11 10:51:23;;;;;;;;;;;12.60;99.90;;;;;;5058085;28;20364;-82
2023/03/11 10:53:54;;;;;;;;;;;14.80;99.90;;;;;;5058042;28;19909;-81
2023/03/11 10:56:45;;;;;;;;;;;16.20;99.90;;;;;;5076474;28;19916;-82
2023/03/11 10:59:26;;;;;;;;;;;16.60;99.90;;;;;;5073399;28;20376;-81
2023/03/11 11:01:56;;;;;;;;;;;17.60;99.90;;;;;;5074539;28;19943;-81
2023/03/11 11:04:26;;;;;;;;;;;18.20;99.90;;;;;;5058119;28;19919;-82
2023/03/11 11:06:51;;;;;;;;;;;17.60;99.90;;;;;;5076042;28;19912;-81
2023/03/11 11:09:19;;;;;;;;;;;16.80;99.90;;;;;;5057722;28;19908;-82
2023/03/11 11:12:10;;;;;;;;;;;15.70;99.90;;;;;;5075469;28;19958;-81
2023/03/11 11:14:43;;;;;;;;;;;14.30;99.90;;;;;;5055286;28;19909;-82
2023/03/11 11:17:16;;;;;;;;;;;13.80;99.90;;;;;;5057893;28;19909;-82
2023/03/11 11:19:43;;;;;;;;;;;13.50;99.90;;;;;;5057684;28;20011;-81
2023/03/11 11:22:10;;;;;;;;;;;13.00;99.90;;;;;;5057610;28;19951;-82
2023/03/11 11:24:42;;;;;;;;;;;12.30;99.90;;;;;;5075134;28;19923;-82
2023/03/11 11:27:21;;;;;;;;;;;12.00;99.90;;;;;;5057261;28;19961;-81
2023/03/11 11:30:01;;;;;;;;;;;11.90;99.90;;;;;;5057324;28;20372;-81
2023/03/11 11:32:26;;;;;;;;;;;11.60;99.90;;;;;;5057158;28;19934;-82
2023/03/11 11:35:04;;;;;;;;;;;11.40;99.90;;;;;;5056870;28;19935;-81
2023/03/11 11:37:31;;;;;;;;;;;10.90;99.90;;;;;;5075077;28;20273;-81
2023/03/11 11:40:16;;;;;;;;;;;10.60;99.90;;;;;;5057325;28;19920;-82
2023/03/11 11:42:45;;;;;;;;;;;10.50;99.90;;;;;;5075097;28;19916;-81
2023/03/11 11:45:18;;;;;;;;;;;10.60;99.90;;;;;;5075089;28;19909;-82
2023/03/11 11:47:48;;;;;;;;;;;10.60;99.90;;;;;;5073654;28;19927;-82
2023/03/11 11:50:32;;;;;;;;;;;10.80;99.90;;;;;;5057237;28;20268;-82
2023/03/11 11:53:21;;;;;;;;;;;11.60;99.90;;;;;;5074910;28;19930;-82
2023/03/11 11:55:47;;;;;;;;;;;12.90;99.90;;;;;;5050706;28;19958;-82
2023/03/11 11:58:13;;;;;;;;;;;12.50;99.90;;;;;;5074493;28;19915;-82
2023/03/11 12:00:50;;;;;;;;;;;12.30;99.90;;;;;;5056421;28;20007;-80
2023/03/11 12:03:34;;;;;;;;;;;12.20;99.90;;;;;;5073049;28;19912;-82
2023/03/11 12:06:06;;;;;;;;;;;12.30;99.90;;;;;;5074822;28;19909;-81
2023/03/11 12:08:46;;;;;;;;;;;12.40;99.90;;;;;;5054278;28;19962;-83
2023/03/11 12:11:27;;;;;;;;;;;12.40;99.90;;;;;;5042970;28;20473;-81
2023/03/11 12:14:25;;;;;;;;;;;12.50;99.90;;;;;;5054066;28;19909;-82
2023/03/11 12:16:56;;;;;;;;;;;12.60;99.90;;;;;;5026652;28;19952;-80
2023/03/11 12:19:21;;;;;;;;;;;12.70;99.90;;;;;;5047205;28;20364;-81
2023/03/11 12:22:02;;;;;;;;;;;13.10;99.90;;;;;;5036677;28;19958;-81
2023/03/11 12:24:30;;;;;;;;;;;13.70;99.90;;;;;;5048617;28;19924;-81
2023/03/11 12:27:02;;;;;;;;;;;14.00;99.90;;;;;;5074202;28;19908;-82
2023/03/11 12:29:30;;;;;;;;;;;13.30;99.90;;;;;;5057224;28;20310;-81
2023/03/11 12:31:56;;;;;;;;;;;12.50;99.90;;;;;;5054293;28;19935;-80
2023/03/11 12:34:23;;;;;;;;;;;12.10;99.90;;;;;;5055008;28;19912;-81
2023/03/11 12:36:50;;;;;;;;;;;11.90;99.90;;;;;;5055623;28;19915;-81
2023/03/11 12:39:18;;;;;;;;;;;11.70;99.90;;;;;;5056961;28;19958;-81
2023/03/11 12:41:44;;;;;;;;;;;11.40;99.90;;;;;;5056291;28;19975;-80
2023/03/11 12:44:10;;;;;;;;;;;11.10;99.90;;;;;;5056295;28;19947;-82
2023/03/11 12:46:54;;;;;;;;;;;10.90;99.90;;;;;;5073254;28;20484;-82
2023/03/11 12:49:23;;;;;;;;;;;11.00;99.90;;;;;;5073020;28;19908;-80
2023/03/11 12:52:12;;;;;;;;;;;10.90;99.90;;;;;;5055895;28;20000;-81
2023/03/11 12:54:42;;;;;;;;;;;11.20;99.90;;;;;;5044141;28;19915;-82
2023/03/11 12:57:17;;;;;;;;;;;11.60;99.90;;;;;;5059834;28;19961;-81
2023/03/11 13:00:01;;;;;;;;;;;12.20;99.90;;;;;;5036092;28;19963;-81
2023/03/11 13:02:26;;;;;;;;;;;12.90;99.90;;;;;;5036244;28;19913;-82
2023/03/11 13:04:52;;;;;;;;;;;13.70;99.90;;;;;;5054658;28;19976;-82
2023/03/11 13:07:17;;;;;;;;;;;14.30;99.90;;;;;;5054525;28;19953;-81
2023/03/11 13:09:43;;;;;;;;;;;15.10;99.90;;;;;;5036395;28;19909;-81
2023/03/11 13:12:27;;;;;;;;;;;15.70;99.90;;;;;;5051801;28;19908;-80
2023/03/11 13:15:13;;;;;;;;;;;16.00;99.90;;;;;;5052821;28;19909;-81
2023/03/11 13:17:38;;;;;;;;;;;15.70;99.90;;;;;;5041894;28;19909;-81
2023/03/11 13:20:24;;;;;;;;;;;15.00;99.90;;;;;;5034263;28;19931;-81
2023/03/11 13:22:56;;;;;;;;;;;14.90;99.90;;;;;;5033510;28;19939;-81
2023/03/11 13:25:29;;;;;;;;;;;14.60;99.90;;;;;;5034929;28;19921;-81
2023/03/11 13:28:18;;;;;;;;;;;14.50;99.90;;;;;;5034933;28;19908;-81
2023/03/11 13:30:51;;;;;;;;;;;14.30;99.90;;;;;;5016524;28;19909;-81
2023/03/11 13:33:16;;;;;;;;;;;14.70;99.90;;;;;;5034627;28;20118;-80
2023/03/11 13:35:48;;;;;;;;;;;15.10;99.90;;;;;;5035425;28;19984;-80
2023/03/11 13:38:13;;;;;;;;;;;15.60;99.90;;;;;;5034877;28;19909;-81
2023/03/11 13:40:40;;;;;;;;;;;17.00;99.90;;;;;;5053117;28;19959;-80
2023/03/11 13:43:35;;;;;;;;;;;17.90;99.90;;;;;;5034156;28;20277;-80
2023/03/11 13:46:12;;;;;;;;;;;19.10;99.90;;;;;;5026048;28;19938;-80
2023/03/11 13:48:45;;;;;;;;;;;20.90;99.90;;;;;;5034759;28;19916;-81
2023/03/11 13:51:14;;;;;;;;;;;21.80;99.90;;;;;;5034068;28;19944;-81
2023/03/11 13:53:42;;;;;;;;;;;22.50;99.90;;;;;;5034233;28;19916;-81
2023/03/11 13:56:21;;;;;;;;;;;21.70;99.90;;;;;;5034581;28;19909;-81
2023/03/11 13:58:46;;;;;;;;;;;20.00;99.90;;;;;;5052655;28;20561;-81
2023/03/11 14:01:16;;;;;;;;;;;18.70;99.90;;;;;;5051601;28;19917;-81
2023/03/11 14:03:42;;;;;;;;;;;17.80;99.90;;;;;;5035193;28;20007;-81
2023/03/11 14:06:11;;;;;;;;;;;16.50;99.90;;;;;;5034813;28;20308;-81
2023/03/11 14:08:37;;;;;;;;;;;15.70;99.90;;;;;;5034981;28;19919;-81
2023/03/11 14:11:22;;;;;;;;;;;15.20;99.90;;;;;;5051773;28;20365;-81
2023/03/11 14:13:49;;;;;;;;;;;14.70;99.90;;;;;;5035408;28;20369;-81
2023/03/11 14:16:23;;;;;;;;;;;14.50;99.90;;;;;;5054228;28;19916;-82
2023/03/11 14:19:11;;;;;;;;;;;14.40;99.90;;;;;;5055683;28;19952;-81
2023/03/11 14:21:40;;;;;;;;;;;15.30;99.90;;;;;;5041616;28;20401;-82
2023/03/11 14:24:05;;;;;;;;;;;18.20;99.90;;;;;;5056479;28;20395;-81
2023/03/11 14:26:33;;;;;;;;;;;20.00;99.90;;;;;;5055683;28;19913;-82
2023/03/11 14:29:01;;;;;;;;;;;21.10;99.90;;;;;;5037964;28;19994;-82
2023/03/11 14:31:34;;;;;;;;;;;22.20;99.90;;;;;;5037340;28;19915;-82
2023/03/11 14:34:09;;;;;;;;;;;23.70;99.90;;;;;;5038264;28;20399;-82
2023/03/11 14:36:52;;;;;;;;;;;24.70;99.90;;;;;;5037886;28;19924;-82
2023/03/11 14:39:30;;;;;;;;;;;25.60;99.90;;;;;;5055340;28;19916;-81
2023/03/11 14:42:17;;;;;;;;;;;25.60;99.90;;;;;;5054589;28;19909;-82
2023/03/11 14:44:46;;;;;;;;;;;25.70;99.90;;;;;;5037726;28;20425;-81
2023/03/11 14:47:16;;;;;;;;;;;25.80;99.90;;;;;;5060409;28;19913;-81
2023/03/11 14:49:42;;;;;;;;;;;26.90;99.90;;;;;;5075767;28;20073;-81
2023/03/11 14:52:13;;;;;;;;;;;26.90;99.90;;;;;;5056718;28;19950;-81
2023/03/11 14:54:40;;;;;;;;;;;27.00;99.90;;;;;;5057546;28;19908;-81
2023/03/11 14:57:07;;;;;;;;;;;27.10;99.90;;;;;;5061097;28;19909;-82
2023/03/11 14:59:34;;;;;;;;;;;27.30;99.90;;;;;;5064052;28;19913;-81
2023/03/11 15:02:22;;;;;;;;;;;26.80;99.90;;;;;;5056084;28;20348;-81
2023/03/11 15:04:48;;;;;;;;;;;25.50;99.90;;;;;;5057121;28;20288;-82
2023/03/11 15:07:15;;;;;;;;;;;24.80;99.90;;;;;;5062721;28;19968;-81
2023/03/11 15:09:41;;;;;;;;;;;24.30;99.90;;;;;;5062557;28;19913;-82
2023/03/11 15:12:06;;;;;;;;;;;24.30;99.90;;;;;;5063018;28;19936;-81
2023/03/11 15:14:34;;;;;;;;;;;24.10;99.90;;;;;;5081943;28;19972;-81
2023/03/11 15:17:16;;;;;;;;;;;24.00;99.90;;;;;;5063615;28;19908;-82
2023/03/11 15:19:42;;;;;;;;;;;23.60;99.90;;;;;;5053481;28;19958;-84
2023/03/11 15:22:26;;;;;;;;;;;22.60;99.90;;;;;;5048386;28;19916;-85
2023/03/11 15:24:56;;;;;;;;;;;21.70;99.90;;;;;;5079475;28;19920;-84
2023/03/11 15:27:32;;;;;;;;;;;21.30;99.90;;;;;;5079827;28;19956;-85
2023/03/11 15:29:58;;;;;;;;;;;21.10;99.90;;;;;;5080144;28;20288;-84
2023/03/11 15:32:30;;;;;;;;;;;20.50;99.90;;;;;;5060712;28;20382;-84
2023/03/11 15:35:21;;;;;;;;;;;19.80;99.90;;;;;;5078600;28;19908;-84
2023/03/11 15:37:48;;;;;;;;;;;18.80;99.90;;;;;;5059184;28;19916;-83
2023/03/11 15:40:16;;;;;;;;;;;17.20;99.90;;;;;;5060060;28;19909;-83
2023/03/11 15:42:42;;;;;;;;;;;16.20;99.90;;;;;;5076871;28;20007;-84
2023/03/11 15:45:13;;;;;;;;;;;15.30;99.90;;;;;;5077667;28;19944;-84
2023/03/11 15:47:39;;;;;;;;;;;14.50;99.90;;;;;;5059600;28;19916;-84
2023/03/11 15:50:23;;;;;;;;;;;13.70;99.90;;;;;;5059360;28;19913;-85
2023/03/11 15:52:49;;;;;;;;;;;13.20;99.90;;;;;;5058067;28;20379;-84
2023/03/11 15:55:15;;;;;;;;;;;12.50;99.90;;;;;;5076555;28;19951;-83
2023/03/11 15:57:40;;;;;;;;;;;12.00;99.90;;;;;;5058232;28;19916;-83
2023/03/11 16:00:14;;;;;;;;;;;11.60;99.90;;;;;;5076136;28;20261;-82
2023/03/11 16:02:39;;;;;;;;;;;11.30;99.90;;;;;;5076017;28;19936;-84
2023/03/11 16:05:11;;;;;;;;;;;11.10;99.90;;;;;;5076093;28;19912;-84
2023/03/11 16:07:36;;;;;;;;;;;10.80;99.90;;;;;;5058536;28;19920;-83
2023/03/11 16:10:02;;;;;;;;;;;10.70;99.90;;;;;;5076981;28;20002;-84
2023/03/11 16:12:27;;;;;;;;;;;10.50;99.90;;;;;;5058781;28;19916;-85
2023/03/11 16:14:52;;;;;;;;;;;10.40;99.90;;;;;;5059269;28;19978;-83
2023/03/11 16:17:19;;;;;;;;;;;10.30;99.90;;;;;;5058633;28;19909;-84
2023/03/11 16:19:45;;;;;;;;;;;10.30;99.90;;;;;;5074592;28;19912;-84
2023/03/11 16:22:18;;;;;;;;;;;10.20;99.90;;;;;;5061079;28;19934;-85
2023/03/11 16:24:44;;;;;;;;;;;10.10;99.90;;;;;;5057320;28;20515;-83
2023/03/11 16:27:14;;;;;;;;;;;10.10;99.90;;;;;;5057251;28;19908;-84
2023/03/11 16:29:39;;;;;;;;;;;10.00;99.90;;;;;;5057417;28;19936;-83
2023/03/11 16:32:05;;;;;;;;;;;9.80;99.90;;;;;;5075078;28;19912;-84
2023/03/11 16:34:30;;;;;;;;;;;9.70;99.90;;;;;;5075314;28;19909;-83
2023/03/11 16:36:56;;;;;;;;;;;9.60;99.90;;;;;;5073693;28;19916;-83
2023/03/11 16:39:21;;;;;;;;;;;9.50;99.90;;;;;;5057137;28;20374;-83
2023/03/11 16:41:46;;;;;;;;;;;9.50;99.90;;;;;;5055977;28;19970;-83
2023/03/11 16:44:12;;;;;;;;;;;9.40;99.90;;;;;;5056786;28;19908;-83
2023/03/11 16:46:38;;;;;;;;;;;9.20;99.90;;;;;;5056469;28;20322;-83
2023/03/11 16:49:04;;;;;;;;;;;9.20;99.90;;;;;;5074538;28;20383;-82
2023/03/11 16:51:30;;;;;;;;;;;9.10;99.90;;;;;;5056096;28;19913;-83
2023/03/11 16:53:55;;;;;;;;;;;9.00;99.90;;;;;;5056623;28;19966;-83
2023/03/11 16:56:21;;;;;;;;;;;8.90;99.90;;;;;;5073819;28;20414;-83
2023/03/11 16:58:48;;;;;;;;;;;8.80;99.90;;;;;;5074545;28;20364;-82
2023/03/11 17:01:14;;;;;;;;;;;8.60;99.90;;;;;;5073453;28;20273;-83